Terminal Aerodrome Forecast
Issued by NWS

Home | Current Version | Previous Version | Text Only | Print | Product List | Glossary On
Versions: 1 2 3 4 5 6 7 8 9 10 11 12 13 14 15 16 17 18 19 20
298
FTUS42 KFFC 251446 AAA
TAFRYY
TAF AMD
KRYY 251446Z 2515/2612 14005KT P6SM SCT050 BKN250
     FM252300 14006KT P6SM VCSH BKN040
     FM260300 14007KT 5SM -SHRA BKN025 PROB30 2603/2609 4SM TSRA
      BKN025CB=

USA.gov is the U.S. government's official web portal to all federal, state and local government web resources and services.